createdAt,value
2019-05-16T00:00:01.059Z,45.70
2019-05-16T00:02:29.562Z,45.80
2019-05-16T00:04:59.163Z,46.20
2019-05-16T00:07:28.307Z,46.50
2019-05-16T00:09:58.874Z,46.60
2019-05-16T00:12:29.198Z,46.80
2019-05-16T00:14:58.162Z,46.90
2019-05-16T00:17:28.519Z,47.00
2019-05-16T00:19:58.892Z,47.50
2019-05-16T00:22:28.767Z,47.60
2019-05-16T00:24:57.978Z,47.80
2019-05-16T00:27:28.060Z,47.90
2019-05-16T00:29:58.110Z,48.90
2019-05-16T00:32:28.182Z,49.00
2019-05-16T00:34:58.379Z,48.60
2019-05-16T00:37:28.733Z,48.80
2019-05-16T00:39:58.773Z,48.60
2019-05-16T00:42:28.650Z,48.70
2019-05-16T00:44:58.346Z,48.80
2019-05-16T00:47:28.360Z,48.90
2019-05-16T00:49:58.191Z,49.10
2019-05-16T00:52:28.688Z,49.30
2019-05-16T00:54:58.030Z,49.40
2019-05-16T00:57:28.177Z,49.60
2019-05-16T00:59:59.048Z,49.70
2019-05-16T01:02:28.855Z,49.90
2019-05-16T01:04:58.966Z,50.80
2019-05-16T01:07:28.484Z,50.30
2019-05-16T01:09:58.350Z,50.50
2019-05-16T01:12:28.425Z,50.60
2019-05-16T01:14:58.461Z,50.70
2019-05-16T01:17:28.369Z,51.00
2019-05-16T01:19:57.890Z,51.20
2019-05-16T01:22:28.868Z,51.30
2019-05-16T01:24:58.515Z,51.60
2019-05-16T01:27:27.794Z,51.60
2019-05-16T01:29:58.302Z,51.90
2019-05-16T01:32:29.161Z,52.00
2019-05-16T01:34:58.733Z,52.10
2019-05-16T01:37:27.883Z,52.30
2019-05-16T01:39:58.589Z,52.30
2019-05-16T01:42:27.868Z,52.40
2019-05-16T01:44:57.813Z,52.50
2019-05-16T01:47:28.634Z,52.70
2019-05-16T01:49:58.076Z,52.90
2019-05-16T01:52:28.898Z,53.00
2019-05-16T01:54:58.703Z,53.00
2019-05-16T01:57:28.238Z,53.00
2019-05-16T01:59:58.774Z,53.10
2019-05-16T02:02:28.943Z,53.10
2019-05-16T02:04:58.909Z,53.30
2019-05-16T02:07:28.352Z,53.30
2019-05-16T02:09:58.254Z,53.40
2019-05-16T02:12:27.781Z,53.60
2019-05-16T02:14:58.618Z,53.50
2019-05-16T02:17:28.909Z,53.40
2019-05-16T02:19:57.822Z,53.30
2019-05-16T02:22:28.384Z,53.30
2019-05-16T02:24:58.361Z,53.10
2019-05-16T02:27:28.556Z,53.10
2019-05-16T02:29:56.945Z,52.90
2019-05-16T02:32:25.351Z,52.80
2019-05-16T02:34:53.754Z,52.70
2019-05-16T02:37:29.308Z,52.60
2019-05-16T02:39:54.495Z,52.60
2019-05-16T02:42:22.692Z,53.20
2019-05-16T02:44:51.309Z,52.40
2019-05-16T02:47:21.064Z,52.40
2019-05-16T02:49:50.495Z,52.40
2019-05-16T02:52:21.728Z,51.70
2019-05-16T02:54:51.848Z,52.40
2019-05-16T02:57:21.233Z,52.30
2019-05-16T02:59:50.997Z,52.20
2019-05-16T03:02:20.618Z,52.10
2019-05-16T03:04:51.692Z,52.00
2019-05-16T03:07:36.028Z,52.00
2019-05-16T03:09:51.542Z,51.90
2019-05-16T03:12:22.212Z,52.00
2019-05-16T03:14:54.581Z,52.00
2019-05-16T03:17:23.258Z,51.70
2019-05-16T03:19:54.748Z,52.00
2019-05-16T03:22:23.046Z,52.00
2019-05-16T03:24:51.659Z,52.00
2019-05-16T03:27:21.615Z,51.80
2019-05-16T03:29:50.726Z,52.20
2019-05-16T03:32:23.986Z,52.50
2019-05-16T03:34:54.212Z,52.70
2019-05-16T03:37:24.701Z,52.90
2019-05-16T03:39:51.467Z,53.20
2019-05-16T03:42:20.453Z,53.30
2019-05-16T03:44:51.223Z,53.40
2019-05-16T03:47:21.893Z,53.50
2019-05-16T03:49:51.712Z,53.80
2019-05-16T03:52:20.763Z,53.90
2019-05-16T03:54:50.723Z,54.00
2019-05-16T03:57:21.273Z,54.10
2019-05-16T03:59:51.830Z,54.40
2019-05-16T04:02:21.549Z,54.40
2019-05-16T04:04:51.146Z,54.50
2019-05-16T04:07:21.484Z,54.50
2019-05-16T04:09:50.751Z,54.90
2019-05-16T04:12:21.395Z,55.10
2019-05-16T04:14:51.240Z,55.30
2019-05-16T04:17:21.148Z,55.50
2019-05-16T04:19:50.848Z,55.40
2019-05-16T04:22:21.456Z,55.30
2019-05-16T04:24:51.305Z,55.40
2019-05-16T04:27:21.543Z,55.60
2019-05-16T04:29:51.289Z,55.40
2019-05-16T04:32:20.929Z,55.60
2019-05-16T04:34:51.087Z,55.70
2019-05-16T04:37:24.092Z,55.60
2019-05-16T04:39:50.662Z,55.90
2019-05-16T04:42:21.419Z,55.90
2019-05-16T04:44:51.588Z,56.10
2019-05-16T04:47:21.089Z,56.10
2019-05-16T04:49:51.945Z,56.20
2019-05-16T04:52:21.736Z,56.20
2019-05-16T04:54:51.254Z,56.10
2019-05-16T04:57:20.903Z,56.10
2019-05-16T04:59:50.866Z,56.20
2019-05-16T05:02:21.384Z,56.30
2019-05-16T05:04:50.938Z,56.40
2019-05-16T05:07:20.647Z,56.40
2019-05-16T05:09:51.366Z,56.30
2019-05-16T05:12:20.799Z,56.40
2019-05-16T05:14:51.076Z,56.50
2019-05-16T05:17:21.036Z,56.50
2019-05-16T05:19:50.708Z,56.50
2019-05-16T05:22:19.868Z,56.40
2019-05-16T05:24:50.588Z,56.20
2019-05-16T05:27:19.760Z,56.10
2019-05-16T05:29:50.314Z,56.00
2019-05-16T05:32:20.015Z,55.80
2019-05-16T05:34:50.331Z,55.50
2019-05-16T05:37:20.446Z,55.20
2019-05-16T05:39:50.403Z,54.40
2019-05-16T05:42:19.920Z,53.80
2019-05-16T05:44:50.823Z,53.00
2019-05-16T05:47:20.027Z,52.10
2019-05-16T05:49:49.869Z,51.20
2019-05-16T05:52:20.795Z,50.20
2019-05-16T05:54:50.293Z,49.40
2019-05-16T05:57:20.901Z,49.00
2019-05-16T05:59:49.830Z,48.40
2019-05-16T06:02:20.101Z,48.00
2019-05-16T06:04:50.246Z,47.80
2019-05-16T06:07:20.475Z,47.80
2019-05-16T06:09:55.624Z,47.80
2019-05-16T06:12:21.210Z,47.80
2019-05-16T06:14:50.493Z,47.70
2019-05-16T06:17:20.150Z,47.70
2019-05-16T06:19:49.780Z,47.60
2019-05-16T06:22:20.487Z,47.60
2019-05-16T06:24:50.458Z,47.00
2019-05-16T06:27:20.906Z,46.40
2019-05-16T06:29:49.702Z,45.90
2019-05-16T06:32:19.797Z,45.00
2019-05-16T06:34:50.568Z,44.20
2019-05-16T06:37:20.531Z,43.60
2019-05-16T06:39:50.261Z,42.80
2019-05-16T06:42:20.643Z,41.90
2019-05-16T06:44:50.394Z,41.70
2019-05-16T06:47:20.745Z,41.10
2019-05-16T06:49:50.955Z,41.20
2019-05-16T06:52:19.747Z,40.60
2019-05-16T06:54:50.412Z,39.30
2019-05-16T06:57:20.487Z,39.30
2019-05-16T06:59:49.992Z,39.10
2019-05-16T07:02:29.717Z,38.60
2019-05-16T07:04:50.603Z,39.10
2019-05-16T07:07:20.488Z,39.40
2019-05-16T07:09:59.998Z,39.80
2019-05-16T07:12:20.288Z,40.40
2019-05-16T07:14:50.503Z,40.80
2019-05-16T07:17:20.183Z,41.20
2019-05-16T07:19:50.324Z,41.80
2019-05-16T07:22:20.498Z,42.30
2019-05-16T07:24:50.442Z,42.70
2019-05-16T07:27:21.753Z,43.10
2019-05-16T07:29:50.816Z,43.10
2019-05-16T07:32:19.842Z,43.00
2019-05-16T07:34:49.849Z,43.20
2019-05-16T07:37:20.128Z,42.80
2019-05-16T07:39:51.118Z,41.90
2019-05-16T07:42:20.102Z,40.70
2019-05-16T07:44:50.557Z,39.50
2019-05-16T07:47:20.281Z,39.70
2019-05-16T07:49:50.175Z,40.00
2019-05-16T07:52:20.948Z,39.50
2019-05-16T07:54:50.759Z,39.60
2019-05-16T07:57:22.778Z,39.50
2019-05-16T07:59:50.660Z,39.40
2019-05-16T08:02:20.842Z,38.70
2019-05-16T08:04:50.229Z,39.40
2019-05-16T08:07:20.096Z,39.60
2019-05-16T08:09:50.541Z,39.20
2019-05-16T08:12:25.531Z,39.10
2019-05-16T08:14:50.170Z,39.00
2019-05-16T08:17:21.419Z,38.90
2019-05-16T08:19:50.674Z,38.50
2019-05-16T08:22:22.179Z,38.60
2019-05-16T08:24:50.536Z,38.50
2019-05-16T08:27:20.824Z,38.50
2019-05-16T08:29:51.366Z,38.70
2019-05-16T08:32:23.067Z,38.70
2019-05-16T08:34:51.427Z,38.70
2019-05-16T08:37:34.137Z,38.60
2019-05-16T08:39:51.320Z,38.30
2019-05-16T08:42:20.910Z,38.20
2019-05-16T08:44:51.726Z,38.20
2019-05-16T08:47:21.304Z,38.20
2019-05-16T08:49:52.239Z,37.90
2019-05-16T08:52:22.373Z,37.60
2019-05-16T08:54:51.067Z,37.30
2019-05-16T08:57:27.490Z,36.80
2019-05-16T08:59:52.363Z,36.70
2019-05-16T09:02:24.578Z,36.40
2019-05-16T09:04:53.358Z,36.30
2019-05-16T09:07:22.747Z,36.30
2019-05-16T09:09:52.007Z,36.50
2019-05-16T09:12:20.904Z,36.70
2019-05-16T09:14:49.300Z,36.90
2019-05-16T09:17:18.155Z,36.90
2019-05-16T09:19:47.164Z,37.10
2019-05-16T09:22:17.886Z,37.50
2019-05-16T09:24:48.184Z,37.70
2019-05-16T09:27:17.916Z,37.90
2019-05-16T09:29:47.166Z,38.10
2019-05-16T09:32:17.963Z,38.30
2019-05-16T09:34:47.866Z,38.60
2019-05-16T09:37:17.985Z,38.80
2019-05-16T09:39:48.040Z,38.80
2019-05-16T09:42:17.130Z,38.90
2019-05-16T09:44:47.581Z,38.90
2019-05-16T09:47:17.543Z,38.90
2019-05-16T09:49:47.519Z,39.00
2019-05-16T09:52:16.591Z,39.00
2019-05-16T09:54:46.891Z,39.00
2019-05-16T09:57:17.561Z,39.70
2019-05-16T09:59:46.475Z,38.80
2019-05-16T10:02:17.441Z,38.70
2019-05-16T10:04:47.378Z,38.50
2019-05-16T10:07:17.957Z,38.30
2019-05-16T10:09:50.037Z,38.30
2019-05-16T10:12:18.650Z,38.40
2019-05-16T10:14:47.077Z,38.60
2019-05-16T10:17:17.709Z,38.30
2019-05-16T10:19:47.569Z,38.30
2019-05-16T10:22:17.106Z,38.30
2019-05-16T10:24:46.846Z,38.40
2019-05-16T10:27:17.196Z,38.50
2019-05-16T10:29:48.454Z,38.40
2019-05-16T10:32:16.718Z,38.10
2019-05-16T10:34:46.710Z,37.40
2019-05-16T10:37:17.577Z,37.10
2019-05-16T10:39:46.970Z,37.20
2019-05-16T10:42:27.207Z,36.70
2019-05-16T10:44:48.322Z,36.00
2019-05-16T10:47:17.237Z,35.90
2019-05-16T10:49:47.584Z,34.10
2019-05-16T10:52:16.720Z,34.80
2019-05-16T10:54:55.343Z,34.10
2019-05-16T10:57:15.919Z,33.70
2019-05-16T11:00:02.073Z,33.20
2019-05-16T11:02:16.525Z,32.80
2019-05-16T11:05:00.197Z,32.60
2019-05-16T11:07:14.717Z,32.40
2019-05-16T11:09:54.958Z,32.10
2019-05-16T11:12:13.243Z,31.80
2019-05-16T11:14:41.823Z,31.80
2019-05-16T11:17:13.377Z,31.60
2019-05-16T11:19:40.419Z,31.50
2019-05-16T11:22:08.818Z,31.50
2019-05-16T11:24:37.842Z,31.70
2019-05-16T11:27:07.527Z,31.90
2019-05-16T11:29:36.678Z,31.90
2019-05-16T11:32:06.976Z,31.80
2019-05-16T11:34:37.375Z,31.80
2019-05-16T11:37:06.837Z,31.70
2019-05-16T11:39:37.125Z,31.60
2019-05-16T11:42:08.091Z,31.60
2019-05-16T11:44:38.252Z,31.80
2019-05-16T11:47:08.157Z,31.90
2019-05-16T11:49:37.109Z,31.90
2019-05-16T11:52:07.280Z,32.10
2019-05-16T11:54:37.377Z,32.00
2019-05-16T11:57:06.926Z,32.10
2019-05-16T11:59:37.346Z,32.20
2019-05-16T12:02:06.002Z,32.40
2019-05-16T12:04:34.410Z,32.50
2019-05-16T12:07:02.819Z,32.30
2019-05-16T12:09:34.536Z,32.30
2019-05-16T12:12:04.253Z,32.30
2019-05-16T12:14:31.521Z,32.50
2019-05-16T12:16:59.926Z,32.50
2019-05-16T12:19:34.585Z,32.40
2019-05-16T12:21:58.497Z,32.70
2019-05-16T12:24:36.086Z,33.00
2019-05-16T12:27:00.596Z,33.40
2019-05-16T12:29:28.169Z,33.50
2019-05-16T12:32:02.369Z,33.60
2019-05-16T12:34:26.859Z,33.70
2019-05-16T12:36:56.584Z,33.80
2019-05-16T12:39:26.839Z,34.00
2019-05-16T12:41:59.319Z,34.00
2019-05-16T12:44:26.917Z,35.00
2019-05-16T12:46:56.995Z,34.20
2019-05-16T12:49:25.590Z,34.10
2019-05-16T12:51:54.016Z,34.00
2019-05-16T12:54:22.563Z,34.10
2019-05-16T12:56:50.999Z,34.30
2019-05-16T12:59:21.605Z,34.50
2019-05-16T13:01:49.520Z,34.70
2019-05-16T13:04:18.825Z,34.80
2019-05-16T13:06:47.791Z,34.80
2019-05-16T13:09:18.535Z,34.70
2019-05-16T13:11:47.290Z,34.70
2019-05-16T13:14:16.938Z,34.50
2019-05-16T13:16:47.329Z,34.40
2019-05-16T13:19:18.207Z,34.50
2019-05-16T13:21:46.945Z,34.60
2019-05-16T13:24:18.550Z,34.70
2019-05-16T13:26:47.675Z,34.70
2019-05-16T13:29:18.104Z,35.40
2019-05-16T13:31:47.848Z,34.90
2019-05-16T13:34:17.750Z,35.00
2019-05-16T13:36:47.450Z,35.20
2019-05-16T13:39:17.043Z,35.30
2019-05-16T13:41:45.618Z,35.60
2019-05-16T13:44:18.824Z,35.90
2019-05-16T13:46:46.624Z,36.20
2019-05-16T13:49:14.356Z,36.20
2019-05-16T13:51:42.774Z,36.10
2019-05-16T13:54:11.178Z,35.90
2019-05-16T13:56:39.571Z,35.80
2019-05-16T13:59:08.283Z,35.90
2019-05-16T14:01:36.965Z,35.90
2019-05-16T14:04:09.483Z,36.00
2019-05-16T14:06:36.847Z,36.00
2019-05-16T14:09:07.637Z,35.90
2019-05-16T14:11:36.703Z,35.80
2019-05-16T14:14:05.822Z,35.80
2019-05-16T14:16:34.240Z,36.00
2019-05-16T14:19:02.711Z,36.10
2019-05-16T14:21:31.114Z,36.20
2019-05-16T14:23:59.534Z,36.20
2019-05-16T14:26:27.991Z,36.40
2019-05-16T14:28:57.682Z,36.50
2019-05-16T14:31:26.477Z,36.60
2019-05-16T14:33:56.683Z,36.70
2019-05-16T14:36:27.812Z,36.90
2019-05-16T14:38:57.520Z,37.00
2019-05-16T14:41:27.918Z,37.40
2019-05-16T14:43:55.915Z,37.60
2019-05-16T14:46:27.218Z,38.00
2019-05-16T14:48:54.449Z,38.10
2019-05-16T14:51:22.854Z,38.30
2019-05-16T14:53:51.265Z,38.60
2019-05-16T14:56:19.659Z,39.00
2019-05-16T14:58:48.742Z,39.20
2019-05-16T15:01:17.726Z,39.50
2019-05-16T15:03:47.301Z,39.60
2019-05-16T15:06:18.275Z,40.10
2019-05-16T15:08:47.520Z,40.20
2019-05-16T15:11:18.002Z,40.50
2019-05-16T15:13:46.262Z,40.80
2019-05-16T15:16:16.749Z,41.00
2019-05-16T15:18:47.332Z,41.40
2019-05-16T15:21:17.372Z,41.60
2019-05-16T15:23:45.079Z,41.70
2019-05-16T15:26:13.558Z,41.90
2019-05-16T15:28:41.963Z,42.30
2019-05-16T15:31:10.438Z,42.30
2019-05-16T15:33:38.837Z,42.40
2019-05-16T15:36:08.579Z,42.40
2019-05-16T15:38:37.326Z,42.50
2019-05-16T15:41:08.154Z,42.80
2019-05-16T15:43:36.875Z,42.70
2019-05-16T15:46:08.128Z,42.80
2019-05-16T15:48:37.073Z,43.00
2019-05-16T15:51:08.714Z,43.20
2019-05-16T15:53:37.030Z,43.10
2019-05-16T15:56:09.585Z,43.60
2019-05-16T15:58:37.317Z,43.60
2019-05-16T16:01:06.967Z,43.80
2019-05-16T16:03:37.932Z,43.90
2019-05-16T16:06:06.791Z,44.20
2019-05-16T16:08:37.348Z,44.40
2019-05-16T16:11:07.401Z,44.80
2019-05-16T16:13:37.447Z,44.90
2019-05-16T16:16:10.116Z,45.40
2019-05-16T16:18:37.700Z,45.50
2019-05-16T16:21:07.537Z,45.70
2019-05-16T16:23:37.295Z,46.10
2019-05-16T16:26:07.143Z,46.10
2019-05-16T16:28:38.277Z,46.10
2019-05-16T16:31:07.772Z,46.20
2019-05-16T16:33:37.389Z,46.50
2019-05-16T16:36:07.812Z,46.60
2019-05-16T16:38:37.034Z,46.50
2019-05-16T16:41:08.029Z,46.90
2019-05-16T16:43:37.299Z,47.50
2019-05-16T16:46:12.958Z,46.70
2019-05-16T16:48:36.273Z,46.70
2019-05-16T16:51:06.605Z,46.80
2019-05-16T16:53:37.487Z,46.80
2019-05-16T16:56:07.352Z,46.80
2019-05-16T16:58:37.228Z,46.80
2019-05-16T17:01:07.336Z,46.70
2019-05-16T17:03:36.371Z,46.70
2019-05-16T17:06:04.883Z,46.90
2019-05-16T17:08:33.329Z,46.80
2019-05-16T17:11:01.800Z,46.80
2019-05-16T17:13:30.515Z,47.00
2019-05-16T17:15:58.966Z,47.10
2019-05-16T17:18:27.704Z,47.00
2019-05-16T17:20:56.975Z,47.00
2019-05-16T17:23:26.392Z,47.00
2019-05-16T17:25:56.696Z,47.40
2019-05-16T17:28:25.316Z,47.10
2019-05-16T17:30:53.761Z,47.00
2019-05-16T17:33:22.206Z,47.10
2019-05-16T17:35:50.679Z,47.00
2019-05-16T17:38:19.082Z,47.20
2019-05-16T17:40:47.543Z,47.00
2019-05-16T17:43:16.479Z,47.00
2019-05-16T17:45:47.072Z,47.10
2019-05-16T17:48:17.522Z,47.20
2019-05-16T17:50:46.756Z,47.60
2019-05-16T17:53:17.321Z,47.70
2019-05-16T17:55:47.268Z,47.50
2019-05-16T17:58:16.539Z,47.60
2019-05-16T18:00:47.176Z,47.60
2019-05-16T18:03:17.466Z,47.60
2019-05-16T18:05:47.517Z,47.60
2019-05-16T18:08:15.964Z,47.60
2019-05-16T18:10:46.935Z,47.70
2019-05-16T18:13:14.558Z,47.70
2019-05-16T18:15:42.962Z,47.60
2019-05-16T18:18:11.714Z,47.90
2019-05-16T18:20:54.535Z,47.90
2019-05-16T18:23:10.233Z,48.00
2019-05-16T18:25:38.646Z,48.00
2019-05-16T18:28:08.018Z,47.90
2019-05-16T18:30:36.941Z,48.10
2019-05-16T18:33:07.358Z,48.30
2019-05-16T18:35:37.097Z,48.10
2019-05-16T18:38:07.251Z,48.30
2019-05-16T18:40:36.727Z,48.10
2019-05-16T18:43:08.113Z,48.20
2019-05-16T18:45:36.595Z,48.30
2019-05-16T18:48:07.472Z,48.30
2019-05-16T18:50:37.601Z,49.10
2019-05-16T18:53:07.158Z,48.40
2019-05-16T18:55:37.154Z,48.50
2019-05-16T18:58:14.311Z,48.60
2019-05-16T19:00:42.726Z,48.70
2019-05-16T19:03:11.129Z,48.80
2019-05-16T19:05:39.614Z,49.00
2019-05-16T19:08:08.079Z,49.10
2019-05-16T19:10:37.036Z,49.40
2019-05-16T19:13:08.222Z,49.50
2019-05-16T19:15:37.470Z,50.10
2019-05-16T19:18:07.007Z,49.80
2019-05-16T19:20:37.431Z,50.60
2019-05-16T19:23:07.287Z,50.60
2019-05-16T19:25:37.121Z,50.80
2019-05-16T19:28:06.799Z,51.20
2019-05-16T19:30:37.349Z,51.20
2019-05-16T19:33:06.945Z,51.40
2019-05-16T19:35:35.642Z,51.60
2019-05-16T19:38:06.469Z,52.20
2019-05-16T19:40:37.711Z,51.80
2019-05-16T19:43:07.308Z,52.00
2019-05-16T19:45:37.370Z,52.30
2019-05-16T19:48:07.235Z,52.20
2019-05-16T19:50:37.166Z,52.40
2019-05-16T19:53:07.697Z,52.50
2019-05-16T19:55:36.805Z,52.60
2019-05-16T19:58:06.981Z,52.60
2019-05-16T20:00:37.547Z,52.80
2019-05-16T20:03:07.697Z,53.30
2019-05-16T20:05:37.507Z,53.60
2019-05-16T20:08:06.787Z,53.10
2019-05-16T20:10:36.619Z,53.20
2019-05-16T20:13:07.818Z,53.10
2019-05-16T20:15:36.570Z,53.20
2019-05-16T20:18:07.655Z,53.40
2019-05-16T20:20:37.112Z,53.50
2019-05-16T20:23:06.465Z,53.50
2019-05-16T20:25:36.477Z,53.70
2019-05-16T20:28:08.732Z,53.70
2019-05-16T20:30:37.098Z,54.50
2019-05-16T20:33:07.008Z,55.80
2019-05-16T20:35:37.613Z,56.00
2019-05-16T20:38:06.796Z,57.10
2019-05-16T20:40:37.411Z,57.10
2019-05-16T20:43:07.584Z,58.00
2019-05-16T20:45:36.226Z,59.00
2019-05-16T20:48:12.335Z,59.10
2019-05-16T20:50:36.102Z,59.60
2019-05-16T20:53:06.964Z,59.80
2019-05-16T20:55:34.650Z,59.90
2019-05-16T20:58:03.676Z,61.80
2019-05-16T21:00:32.078Z,61.40
2019-05-16T21:03:00.527Z,61.50
2019-05-16T21:05:29.001Z,62.80
2019-05-16T21:07:57.415Z,62.70
2019-05-16T21:10:27.477Z,63.70
2019-05-16T21:12:57.388Z,63.30
2019-05-16T21:15:26.331Z,65.00
2019-05-16T21:17:56.658Z,64.00
2019-05-16T21:20:27.007Z,64.70
2019-05-16T21:22:56.465Z,66.30
2019-05-16T21:25:26.409Z,66.50
2019-05-16T21:27:57.099Z,65.60
2019-05-16T21:30:27.227Z,67.20
2019-05-16T21:32:56.473Z,67.30
2019-05-16T21:35:26.995Z,69.00
2019-05-16T21:37:55.223Z,68.20
2019-05-16T21:40:23.627Z,67.30
2019-05-16T21:42:52.034Z,67.40
2019-05-16T21:45:20.747Z,68.10
2019-05-16T21:47:49.147Z,69.20
2019-05-16T21:50:19.272Z,68.50
2019-05-16T21:52:48.797Z,67.90
2019-05-16T21:55:17.616Z,67.90
2019-05-16T21:57:46.763Z,67.80
2019-05-16T22:00:28.875Z,68.60
2019-05-16T22:02:57.413Z,68.10
2019-05-16T22:05:25.957Z,68.70
2019-05-16T22:07:56.620Z,70.00
2019-05-16T22:10:26.583Z,69.40
2019-05-16T22:12:57.170Z,68.60
2019-05-16T22:15:25.297Z,69.30
2019-05-16T22:17:53.705Z,68.90
2019-05-16T22:20:22.547Z,69.00
2019-05-16T22:22:50.938Z,70.50
2019-05-16T22:25:19.443Z,69.40
2019-05-16T22:27:48.924Z,69.20
2019-05-16T22:30:18.774Z,69.20
2019-05-16T22:32:47.864Z,69.60
2019-05-16T22:35:17.693Z,70.40
2019-05-16T22:37:55.152Z,69.90
2019-05-16T22:40:18.504Z,70.50
2019-05-16T22:42:47.026Z,70.40
2019-05-16T22:45:18.297Z,70.10
2019-05-16T22:47:46.932Z,70.90
2019-05-16T22:50:17.578Z,72.80
2019-05-16T22:52:46.187Z,71.60
2019-05-16T22:55:17.006Z,72.90
2019-05-16T22:57:47.384Z,71.90
2019-05-16T23:00:21.041Z,72.30
2019-05-16T23:02:49.450Z,72.40
2019-05-16T23:05:17.874Z,72.30
2019-05-16T23:07:48.472Z,71.90
2019-05-16T23:10:16.990Z,72.50
2019-05-16T23:12:45.404Z,71.80
2019-05-16T23:15:16.936Z,72.00
2019-05-16T23:17:46.537Z,72.00
2019-05-16T23:20:17.098Z,72.00
2019-05-16T23:22:46.999Z,71.70
2019-05-16T23:25:17.147Z,71.80
2019-05-16T23:27:47.433Z,71.70
2019-05-16T23:30:17.151Z,71.90
2019-05-16T23:32:47.184Z,71.80
2019-05-16T23:35:15.923Z,72.10
2019-05-16T23:37:46.381Z,73.10
2019-05-16T23:40:14.983Z,72.00
2019-05-16T23:42:43.402Z,71.80
2019-05-16T23:45:12.048Z,72.10
2019-05-16T23:47:40.472Z,72.40
2019-05-16T23:50:09.779Z,72.90
2019-05-16T23:52:38.196Z,72.80
2019-05-16T23:55:08.449Z,72.50
2019-05-16T23:57:37.547Z,72.40
